createdAt,value
2019-03-27T00:00:51.159Z,8.20
2019-03-27T00:01:51.174Z,8.11
2019-03-27T00:03:44.329Z,8.24
2019-03-27T00:04:44.335Z,8.23
2019-03-27T00:06:37.497Z,8.09
2019-03-27T00:07:37.495Z,8.14
2019-03-27T00:09:30.645Z,8.17
2019-03-27T00:10:30.655Z,8.21
2019-03-27T00:12:23.821Z,8.17
2019-03-27T00:13:23.814Z,8.20
2019-03-27T00:15:16.981Z,8.28
2019-03-27T00:16:16.983Z,8.27
2019-03-27T00:18:10.128Z,8.26
2019-03-27T00:19:10.143Z,8.24
2019-03-27T00:21:03.288Z,8.17
2019-03-27T00:22:03.281Z,8.27
2019-03-27T00:23:56.430Z,8.35
2019-03-27T00:24:56.444Z,8.27
2019-03-27T00:26:49.605Z,8.28
2019-03-27T00:27:49.608Z,8.31
2019-03-27T00:29:42.758Z,8.32
2019-03-27T00:30:42.768Z,8.32
2019-03-27T00:32:47.600Z,8.31
2019-03-27T00:33:47.606Z,8.26
2019-03-27T00:35:40.735Z,8.41
2019-03-27T00:36:40.761Z,8.27
2019-03-27T00:38:34.001Z,8.35
2019-03-27T00:39:34.027Z,8.41
2019-03-27T00:41:27.181Z,8.36
2019-03-27T00:42:27.178Z,8.44
2019-03-27T00:44:20.322Z,8.28
2019-03-27T00:45:26.432Z,8.26
2019-03-27T00:47:13.495Z,8.39
2019-03-27T00:48:13.495Z,8.36
2019-03-27T00:50:06.707Z,8.42
2019-03-27T00:51:06.666Z,8.36
2019-03-27T00:52:59.896Z,8.28
2019-03-27T00:53:59.890Z,8.32
2019-03-27T00:55:53.033Z,8.28
2019-03-27T00:56:53.048Z,8.26
2019-03-27T00:58:46.318Z,8.28
2019-03-27T00:59:46.245Z,8.24
2019-03-27T01:01:39.458Z,8.13
2019-03-27T01:02:39.454Z,8.21
2019-03-27T01:04:32.601Z,8.36
2019-03-27T01:05:32.627Z,8.24
2019-03-27T01:07:25.757Z,8.23
2019-03-27T01:08:25.764Z,8.32
2019-03-27T01:10:18.980Z,8.27
2019-03-27T01:11:18.988Z,8.18
2019-03-27T01:13:12.222Z,8.14
2019-03-27T01:14:12.224Z,8.20
2019-03-27T01:16:05.373Z,8.28
2019-03-27T01:17:05.395Z,8.17
2019-03-27T01:18:58.552Z,8.18
2019-03-27T01:19:58.560Z,8.18
2019-03-27T01:21:51.726Z,8.18
2019-03-27T01:22:51.738Z,8.16
2019-03-27T01:24:44.888Z,8.20
2019-03-27T01:25:44.899Z,8.18
2019-03-27T01:27:38.055Z,8.21
2019-03-27T01:28:38.064Z,8.20
2019-03-27T01:30:31.213Z,8.21
2019-03-27T01:31:31.220Z,8.02
2019-03-27T01:33:24.365Z,8.18
2019-03-27T01:34:24.385Z,8.17
2019-03-27T01:36:17.525Z,8.05
2019-03-27T01:37:17.546Z,8.08
2019-03-27T01:39:10.702Z,8.09
2019-03-27T01:40:10.712Z,8.08
2019-03-27T01:42:03.845Z,8.03
2019-03-27T01:43:03.863Z,8.02
2019-03-27T01:44:57.016Z,8.05
2019-03-27T01:45:57.022Z,8.06
2019-03-27T01:47:50.192Z,8.13
2019-03-27T01:48:50.198Z,8.03
2019-03-27T01:50:43.330Z,8.13
2019-03-27T01:51:43.359Z,8.05
2019-03-27T01:53:36.513Z,8.03
2019-03-27T01:54:36.506Z,8.01
2019-03-27T01:56:29.682Z,8.01
2019-03-27T01:57:29.686Z,7.93
2019-03-27T01:59:22.837Z,8.05
2019-03-27T02:00:22.829Z,8.02
2019-03-27T02:02:15.979Z,8.02
2019-03-27T02:03:15.985Z,8.01
2019-03-27T02:05:09.168Z,8.13
2019-03-27T02:06:09.159Z,8.01
2019-03-27T02:08:02.313Z,8.11
2019-03-27T02:09:02.313Z,8.21
2019-03-27T02:10:55.483Z,8.09
2019-03-27T02:11:55.488Z,8.06
2019-03-27T02:13:48.656Z,7.96
2019-03-27T02:14:48.660Z,8.05
2019-03-27T02:16:41.840Z,8.06
2019-03-27T02:17:41.855Z,8.05
2019-03-27T02:19:35.030Z,8.11
2019-03-27T02:20:35.034Z,8.06
2019-03-27T02:22:28.193Z,8.05
2019-03-27T02:23:28.229Z,8.05
2019-03-27T02:25:21.408Z,8.11
2019-03-27T02:26:21.403Z,8.11
2019-03-27T02:28:14.551Z,8.20
2019-03-27T02:29:14.604Z,8.16
2019-03-27T02:31:07.732Z,8.06
2019-03-27T02:32:07.738Z,8.13
2019-03-27T02:34:16.234Z,8.26
2019-03-27T02:35:16.233Z,8.13
2019-03-27T02:37:09.434Z,8.11
2019-03-27T02:38:09.429Z,8.13
2019-03-27T02:40:02.674Z,8.11
2019-03-27T02:41:02.670Z,8.17
2019-03-27T02:42:55.816Z,8.11
2019-03-27T02:43:55.825Z,8.13
2019-03-27T02:45:49.013Z,8.17
2019-03-27T02:46:48.977Z,8.13
2019-03-27T02:48:42.156Z,8.17
2019-03-27T02:49:42.153Z,8.17
2019-03-27T02:51:52.619Z,8.20
2019-03-27T02:52:52.656Z,8.13
2019-03-27T02:55:03.111Z,8.26
2019-03-27T02:56:03.118Z,8.17
2019-03-27T02:57:56.326Z,8.18
2019-03-27T02:58:56.328Z,8.11
2019-03-27T03:00:49.483Z,8.05
2019-03-27T03:01:49.498Z,8.01
2019-03-27T03:03:42.650Z,8.14
2019-03-27T03:04:42.650Z,8.11
2019-03-27T03:06:35.817Z,8.14
2019-03-27T03:07:35.809Z,8.14
2019-03-27T03:09:28.969Z,8.17
2019-03-27T03:10:28.980Z,8.13
2019-03-27T03:12:22.116Z,8.17
2019-03-27T03:13:22.137Z,8.16
2019-03-27T03:15:15.285Z,8.17
2019-03-27T03:16:15.294Z,8.24
2019-03-27T03:18:08.435Z,8.14
2019-03-27T03:19:08.453Z,8.17
2019-03-27T03:21:01.608Z,8.18
2019-03-27T03:22:01.618Z,8.14
2019-03-27T03:23:54.799Z,8.16
2019-03-27T03:24:54.808Z,8.20
2019-03-27T03:27:05.337Z,8.14
2019-03-27T03:28:05.286Z,8.13
2019-03-27T03:29:58.467Z,8.21
2019-03-27T03:30:58.475Z,8.17
2019-03-27T03:32:51.608Z,8.18
2019-03-27T03:33:51.650Z,8.17
2019-03-27T03:35:44.782Z,8.16
2019-03-27T03:36:44.791Z,8.11
2019-03-27T03:38:37.934Z,8.09
2019-03-27T03:39:37.944Z,8.23
2019-03-27T03:41:31.107Z,8.21
2019-03-27T03:42:31.102Z,8.18
2019-03-27T03:44:24.255Z,8.26
2019-03-27T03:45:24.395Z,8.26
2019-03-27T03:47:17.437Z,8.27
2019-03-27T03:48:17.452Z,8.16
2019-03-27T03:50:10.598Z,8.18
2019-03-27T03:51:10.602Z,8.26
2019-03-27T03:53:03.755Z,8.28
2019-03-27T03:54:03.762Z,8.24
2019-03-27T03:55:56.911Z,8.31
2019-03-27T03:56:56.914Z,8.23
2019-03-27T03:58:50.060Z,8.18
2019-03-27T03:59:50.074Z,8.32
2019-03-27T04:01:43.260Z,8.23
2019-03-27T04:02:43.281Z,8.36
2019-03-27T04:04:36.377Z,8.32
2019-03-27T04:05:36.388Z,8.32
2019-03-27T04:07:29.640Z,8.28
2019-03-27T04:08:29.642Z,8.35
2019-03-27T04:10:22.811Z,8.44
2019-03-27T04:11:22.812Z,8.34
2019-03-27T04:13:15.949Z,8.39
2019-03-27T04:14:15.963Z,8.35
2019-03-27T04:16:09.121Z,8.38
2019-03-27T04:17:17.160Z,8.27
2019-03-27T04:19:02.264Z,8.44
2019-03-27T04:20:02.287Z,8.35
2019-03-27T04:21:55.437Z,8.41
2019-03-27T04:22:55.441Z,8.42
2019-03-27T04:24:48.580Z,8.45
2019-03-27T04:26:08.192Z,8.39
2019-03-27T04:27:41.757Z,8.46
2019-03-27T04:28:41.763Z,8.54
2019-03-27T04:30:34.928Z,8.49
2019-03-27T04:31:34.932Z,8.54
2019-03-27T04:33:28.087Z,8.56
2019-03-27T04:34:28.109Z,8.57
2019-03-27T04:36:21.306Z,8.53
2019-03-27T04:37:21.291Z,8.57
2019-03-27T04:39:14.461Z,8.59
2019-03-27T04:40:14.449Z,8.45
2019-03-27T04:42:07.632Z,8.52
2019-03-27T04:43:07.642Z,8.49
2019-03-27T04:45:00.758Z,8.57
2019-03-27T04:46:00.768Z,8.52
2019-03-27T04:47:53.960Z,8.44
2019-03-27T04:48:53.957Z,8.53
2019-03-27T04:50:47.153Z,8.50
2019-03-27T04:51:47.148Z,8.56
2019-03-27T04:53:40.371Z,8.59
2019-03-27T04:54:40.383Z,8.53
2019-03-27T04:56:33.540Z,8.46
2019-03-27T04:57:33.539Z,8.56
2019-03-27T04:59:26.833Z,8.53
2019-03-27T05:00:26.689Z,8.61
2019-03-27T05:02:19.863Z,8.56
2019-03-27T05:03:19.869Z,8.57
2019-03-27T05:05:13.005Z,8.60
2019-03-27T05:06:13.015Z,8.57
2019-03-27T05:08:06.195Z,8.57
2019-03-27T05:09:06.195Z,8.57
2019-03-27T05:10:59.329Z,8.64
2019-03-27T05:11:59.361Z,8.69
2019-03-27T05:13:52.515Z,8.69
2019-03-27T05:14:52.515Z,8.64
2019-03-27T05:16:45.683Z,8.59
2019-03-27T05:17:46.642Z,8.74
2019-03-27T05:19:38.845Z,8.68
2019-03-27T05:20:38.840Z,8.63
2019-03-27T05:22:32.016Z,8.66
2019-03-27T05:23:32.006Z,8.64
2019-03-27T05:25:25.192Z,8.60
2019-03-27T05:26:25.198Z,8.69
2019-03-27T05:28:18.402Z,8.59
2019-03-27T05:29:18.407Z,8.66
2019-03-27T05:31:11.559Z,8.64
2019-03-27T05:32:11.562Z,8.66
2019-03-27T05:34:04.745Z,8.71
2019-03-27T05:35:04.725Z,8.66
2019-03-27T05:36:57.871Z,8.77
2019-03-27T05:37:57.869Z,8.78
2019-03-27T05:39:51.027Z,8.68
2019-03-27T05:40:51.049Z,8.74
2019-03-27T05:42:44.195Z,8.72
2019-03-27T05:43:44.202Z,8.64
2019-03-27T05:45:37.351Z,8.68
2019-03-27T05:46:37.369Z,8.68
2019-03-27T05:48:30.514Z,8.69
2019-03-27T05:49:30.529Z,8.74
2019-03-27T05:51:23.661Z,8.74
2019-03-27T05:52:23.687Z,8.75
2019-03-27T05:54:16.843Z,8.71
2019-03-27T05:55:16.852Z,8.71
2019-03-27T05:57:10.019Z,8.74
2019-03-27T06:00:03.179Z,8.74
2019-03-27T06:01:03.190Z,8.79
2019-03-27T06:02:56.443Z,8.72
2019-03-27T06:03:56.358Z,8.71
2019-03-27T06:05:49.515Z,8.75
2019-03-27T06:06:49.551Z,8.77
2019-03-27T06:08:42.698Z,8.77
2019-03-27T06:09:42.704Z,8.77
2019-03-27T06:11:35.841Z,8.77
2019-03-27T06:12:35.854Z,8.68
2019-03-27T06:14:29.054Z,8.68
2019-03-27T06:15:29.050Z,8.82
2019-03-27T06:17:22.220Z,8.84
2019-03-27T06:18:22.236Z,9.00
2019-03-27T06:21:32.793Z,9.27
2019-03-27T06:22:32.822Z,9.16
2019-03-27T06:23:32.840Z,9.13
2019-03-27T06:24:32.858Z,8.97
2019-03-27T06:25:32.878Z,8.87
2019-03-27T06:26:32.908Z,8.99
2019-03-27T06:27:53.952Z,9.03
2019-03-27T06:28:32.901Z,8.99
2019-03-27T06:29:32.930Z,8.93
2019-03-27T06:30:32.947Z,8.95
2019-03-27T06:31:32.963Z,8.97
2019-03-27T06:32:32.987Z,8.96
2019-03-27T06:33:33.017Z,8.99
2019-03-27T06:34:33.025Z,8.92
2019-03-27T06:35:33.049Z,8.95
2019-03-27T06:36:33.079Z,8.96
2019-03-27T06:37:33.101Z,8.96
2019-03-27T06:38:33.117Z,8.99
2019-03-27T06:39:33.138Z,9.03
2019-03-27T06:40:33.153Z,9.05
2019-03-27T06:41:33.176Z,8.97
2019-03-27T06:42:33.206Z,8.97
2019-03-27T06:43:33.223Z,9.02
2019-03-27T06:44:33.250Z,8.87
2019-03-27T06:45:33.262Z,8.95
2019-03-27T06:46:33.296Z,8.97
2019-03-27T06:47:33.306Z,9.03
2019-03-27T06:48:33.337Z,8.96
2019-03-27T06:49:33.356Z,9.02
2019-03-27T06:50:33.370Z,9.11
2019-03-27T06:51:40.067Z,8.99
2019-03-27T06:52:33.412Z,9.00
2019-03-27T06:53:33.436Z,9.05
2019-03-27T06:54:33.461Z,9.05
2019-03-27T06:55:33.477Z,9.08
2019-03-27T06:56:33.493Z,9.02
2019-03-27T06:57:33.523Z,9.02
2019-03-27T06:58:33.545Z,9.12
2019-03-27T06:59:33.572Z,9.08
2019-03-27T07:00:33.584Z,8.92
2019-03-27T07:01:33.601Z,9.00
2019-03-27T07:02:33.632Z,9.02
2019-03-27T07:03:33.659Z,9.02
2019-03-27T07:04:33.672Z,9.19
2019-03-27T07:05:33.694Z,9.45
2019-03-27T07:06:33.725Z,9.40
2019-03-27T07:07:33.735Z,9.54
2019-03-27T07:08:33.755Z,9.66
2019-03-27T07:09:33.783Z,9.66
2019-03-27T07:10:33.798Z,9.63
2019-03-27T07:11:33.825Z,9.55
2019-03-27T07:12:33.840Z,9.58
2019-03-27T07:13:33.871Z,9.54
2019-03-27T07:14:33.897Z,9.55
2019-03-27T07:15:35.762Z,9.47
2019-03-27T07:16:33.932Z,9.52
2019-03-27T07:17:33.956Z,9.44
2019-03-27T07:18:39.899Z,9.51
2019-03-27T07:19:33.992Z,9.59
2019-03-27T07:20:34.006Z,9.77
2019-03-27T07:21:34.047Z,9.80
2019-03-27T07:22:34.062Z,9.74
2019-03-27T07:23:34.083Z,9.69
2019-03-27T07:24:34.105Z,9.69
2019-03-27T07:25:34.130Z,9.66
2019-03-27T07:26:34.151Z,9.59
2019-03-27T07:27:34.168Z,9.69
2019-03-27T07:28:34.188Z,9.74
2019-03-27T07:29:34.215Z,9.73
2019-03-27T07:30:34.308Z,9.73
2019-03-27T07:31:34.257Z,9.56
2019-03-27T07:32:34.283Z,9.59
2019-03-27T07:33:34.297Z,9.76
2019-03-27T07:34:34.322Z,9.63
2019-03-27T07:35:34.368Z,9.59
2019-03-27T07:36:34.364Z,9.62
2019-03-27T07:37:34.383Z,9.82
2019-03-27T07:38:34.406Z,9.72
2019-03-27T07:39:34.430Z,9.76
2019-03-27T07:40:34.475Z,9.69
2019-03-27T07:41:34.468Z,9.72
2019-03-27T07:42:34.499Z,9.80
2019-03-27T07:43:34.529Z,9.82
2019-03-27T07:44:34.541Z,9.82
2019-03-27T07:45:34.557Z,9.84
2019-03-27T07:46:34.583Z,9.76
2019-03-27T07:47:34.605Z,9.77
2019-03-27T07:48:34.625Z,9.74
2019-03-27T07:49:34.648Z,9.74
2019-03-27T07:50:34.675Z,9.74
2019-03-27T07:51:34.691Z,9.87
2019-03-27T07:52:34.709Z,9.81
2019-03-27T07:53:34.748Z,9.76
2019-03-27T07:54:34.757Z,9.74
2019-03-27T07:55:34.790Z,9.70
2019-03-27T07:56:34.799Z,9.72
2019-03-27T07:57:34.823Z,9.77
2019-03-27T07:58:34.851Z,9.81
2019-03-27T07:59:34.867Z,9.76
2019-03-27T08:00:34.896Z,9.87
2019-03-27T08:01:34.911Z,9.84
2019-03-27T08:02:34.940Z,9.77
2019-03-27T08:03:34.974Z,9.87
2019-03-27T08:04:34.973Z,9.84
2019-03-27T08:05:35.005Z,9.82
2019-03-27T08:06:35.019Z,9.87
2019-03-27T08:07:35.042Z,9.88
2019-03-27T08:08:35.066Z,9.85
2019-03-27T08:09:35.091Z,9.80
2019-03-27T08:10:35.107Z,9.67
2019-03-27T08:11:35.250Z,9.69
2019-03-27T08:12:35.156Z,9.74
2019-03-27T08:13:35.175Z,9.69
2019-03-27T08:14:35.200Z,9.77
2019-03-27T08:15:35.221Z,9.76
2019-03-27T08:16:35.245Z,9.77
2019-03-27T08:17:35.272Z,9.77
2019-03-27T08:18:35.287Z,9.72
2019-03-27T08:19:35.299Z,9.70
2019-03-27T08:20:35.329Z,9.80
2019-03-27T08:21:35.349Z,9.69
2019-03-27T08:22:35.374Z,9.70
2019-03-27T08:23:35.400Z,9.69
2019-03-27T08:24:35.415Z,9.59
2019-03-27T08:25:35.437Z,9.81
2019-03-27T08:26:35.462Z,9.72
2019-03-27T08:27:35.477Z,9.76
2019-03-27T08:28:35.516Z,9.72
2019-03-27T08:29:35.533Z,9.64
2019-03-27T08:30:35.548Z,9.66
2019-03-27T08:31:35.568Z,9.76
2019-03-27T08:32:37.561Z,9.77
2019-03-27T08:33:35.612Z,9.69
2019-03-27T08:34:35.648Z,9.73
2019-03-27T08:35:35.662Z,9.80
2019-03-27T08:36:35.688Z,9.69
2019-03-27T08:37:35.703Z,9.76
2019-03-27T08:38:35.729Z,9.73
2019-03-27T08:39:35.811Z,9.76
2019-03-27T08:40:35.763Z,9.80
2019-03-27T08:41:35.806Z,9.80
2019-03-27T08:42:35.818Z,9.73
2019-03-27T08:43:35.828Z,9.72
2019-03-27T08:44:35.859Z,9.67
2019-03-27T08:45:35.875Z,9.62
2019-03-27T08:46:35.896Z,9.63
2019-03-27T08:47:35.919Z,9.69
2019-03-27T08:48:39.100Z,9.80
2019-03-27T08:49:35.970Z,9.80
2019-03-27T08:50:35.985Z,9.66
2019-03-27T08:51:36.009Z,9.76
2019-03-27T08:52:36.025Z,9.63
2019-03-27T08:53:36.054Z,9.66
2019-03-27T08:54:36.076Z,9.69
2019-03-27T08:55:36.101Z,9.63
2019-03-27T08:56:36.128Z,9.55
2019-03-27T08:57:36.147Z,9.66
2019-03-27T08:58:36.163Z,9.63
2019-03-27T08:59:36.181Z,9.63
2019-03-27T09:00:36.206Z,9.72
2019-03-27T09:01:36.224Z,9.76
2019-03-27T09:02:36.243Z,9.77
2019-03-27T09:03:36.283Z,9.76
2019-03-27T09:04:36.287Z,9.72
2019-03-27T09:05:36.322Z,9.76
2019-03-27T09:06:36.332Z,9.74
2019-03-27T09:07:36.369Z,9.72
2019-03-27T09:08:36.373Z,9.72
2019-03-27T09:09:36.395Z,9.76
2019-03-27T09:10:36.429Z,9.90
2019-03-27T09:11:36.443Z,10.03
2019-03-27T09:12:36.471Z,10.07
2019-03-27T09:13:36.489Z,10.17
2019-03-27T09:14:36.507Z,10.09
2019-03-27T09:15:36.536Z,10.23
2019-03-27T09:16:36.551Z,10.18
2019-03-27T09:17:36.576Z,10.31
2019-03-27T09:18:36.600Z,10.20
2019-03-27T09:19:36.627Z,10.12
2019-03-27T09:20:36.641Z,10.10
2019-03-27T09:21:36.662Z,10.17
2019-03-27T09:22:36.687Z,10.09
2019-03-27T09:23:36.710Z,10.13
2019-03-27T09:24:36.729Z,10.13
2019-03-27T09:25:36.750Z,10.05
2019-03-27T09:26:36.774Z,10.05
2019-03-27T09:27:36.797Z,10.03
2019-03-27T09:28:36.820Z,9.92
2019-03-27T09:29:36.834Z,10.03
2019-03-27T09:30:36.860Z,10.09
2019-03-27T09:31:44.862Z,10.20
2019-03-27T09:32:36.911Z,10.43
2019-03-27T09:33:36.927Z,10.57
2019-03-27T09:34:36.958Z,10.51
2019-03-27T09:35:36.975Z,10.59
2019-03-27T09:36:37.005Z,10.64
2019-03-27T09:37:37.023Z,10.64
2019-03-27T09:38:37.047Z,10.48
2019-03-27T09:39:37.072Z,10.53
2019-03-27T09:40:37.083Z,10.45
2019-03-27T09:41:37.115Z,10.72
2019-03-27T09:42:37.131Z,10.77
2019-03-27T09:43:37.154Z,10.65
2019-03-27T09:44:37.175Z,10.51
2019-03-27T09:45:37.250Z,10.48
2019-03-27T09:46:37.220Z,10.65
2019-03-27T09:47:37.242Z,10.51
2019-03-27T09:48:37.270Z,10.42
2019-03-27T09:49:48.913Z,10.43
2019-03-27T09:50:37.323Z,10.42
2019-03-27T09:51:37.329Z,10.51
2019-03-27T09:52:37.349Z,10.45
2019-03-27T09:53:37.382Z,10.45
2019-03-27T09:54:37.394Z,10.38
2019-03-27T09:55:37.419Z,10.53
2019-03-27T09:56:37.442Z,10.48
2019-03-27T09:57:37.475Z,10.53
2019-03-27T09:58:37.524Z,10.46
2019-03-27T09:59:37.507Z,10.42
2019-03-27T10:00:37.533Z,10.51
2019-03-27T10:01:37.552Z,10.48
2019-03-27T10:02:37.581Z,10.46
2019-03-27T10:03:37.599Z,10.39
2019-03-27T10:04:37.619Z,10.51
2019-03-27T10:05:37.645Z,10.45
2019-03-27T10:06:37.665Z,10.58
2019-03-27T10:07:37.693Z,10.42
2019-03-27T10:08:37.720Z,10.49
2019-03-27T10:09:37.731Z,10.45
2019-03-27T10:10:37.757Z,10.45
2019-03-27T10:11:37.779Z,10.41
2019-03-27T10:12:37.809Z,10.36
2019-03-27T10:13:37.824Z,10.36
2019-03-27T10:14:37.845Z,10.27
2019-03-27T10:15:37.869Z,10.28
2019-03-27T10:16:37.886Z,10.33
2019-03-27T10:17:37.907Z,10.36
2019-03-27T10:18:37.939Z,10.43
2019-03-27T10:19:37.951Z,10.41
2019-03-27T10:20:37.987Z,10.41
2019-03-27T10:21:38.008Z,10.46
2019-03-27T10:22:38.030Z,10.51
2019-03-27T10:23:38.041Z,10.41
2019-03-27T10:24:38.080Z,10.46
2019-03-27T10:25:38.094Z,10.39
2019-03-27T10:26:38.108Z,10.33
2019-03-27T10:27:38.197Z,10.36
2019-03-27T10:28:38.162Z,10.38
2019-03-27T10:29:38.185Z,10.38
2019-03-27T10:30:38.200Z,10.33
2019-03-27T10:31:38.235Z,10.38
2019-03-27T10:32:38.242Z,10.34
2019-03-27T10:33:38.268Z,10.36
2019-03-27T10:34:38.287Z,10.27
2019-03-27T10:35:38.309Z,10.33
2019-03-27T10:36:38.337Z,10.18
2019-03-27T10:37:38.350Z,10.30
2019-03-27T10:38:41.550Z,10.25
2019-03-27T10:39:38.397Z,10.28
2019-03-27T10:40:38.420Z,10.31
2019-03-27T10:41:38.445Z,10.39
2019-03-27T10:42:38.472Z,10.41
2019-03-27T10:43:38.484Z,10.42
2019-03-27T10:44:38.514Z,10.39
2019-03-27T10:45:38.536Z,10.45
2019-03-27T10:46:38.556Z,10.57
2019-03-27T10:47:38.572Z,10.55
2019-03-27T10:48:51.543Z,10.53
2019-03-27T10:49:38.642Z,10.53
2019-03-27T10:50:38.652Z,10.59
2019-03-27T10:51:38.664Z,10.49
2019-03-27T10:52:38.686Z,10.53
2019-03-27T10:53:38.706Z,10.48
2019-03-27T10:54:38.730Z,10.51
2019-03-27T10:55:38.753Z,10.51
2019-03-27T10:56:38.774Z,10.58
2019-03-27T10:57:38.799Z,10.53
2019-03-27T10:58:38.827Z,10.53
2019-03-27T10:59:38.841Z,10.49
2019-03-27T11:00:38.864Z,10.53
2019-03-27T11:01:38.895Z,10.77
2019-03-27T11:02:38.908Z,10.62
2019-03-27T11:03:38.933Z,10.61
2019-03-27T11:04:38.954Z,10.62
2019-03-27T11:05:38.986Z,10.67
2019-03-27T11:06:38.998Z,10.59
2019-03-27T11:07:39.023Z,10.62
2019-03-27T11:08:39.043Z,10.68
2019-03-27T11:09:39.066Z,10.65
2019-03-27T11:10:39.085Z,10.65
2019-03-27T11:11:39.119Z,10.65
2019-03-27T11:12:39.139Z,10.84
2019-03-27T11:13:39.162Z,10.79
2019-03-27T11:14:39.178Z,10.79
2019-03-27T11:15:39.202Z,10.84
2019-03-27T11:16:39.218Z,10.84
2019-03-27T11:17:39.244Z,10.84
2019-03-27T11:18:39.266Z,10.82
2019-03-27T11:19:39.290Z,10.79
2019-03-27T11:20:39.313Z,10.77
2019-03-27T11:21:39.334Z,10.87
2019-03-27T11:22:39.359Z,10.80
2019-03-27T11:23:39.375Z,10.82
2019-03-27T11:24:39.390Z,10.86
2019-03-27T11:25:39.438Z,10.77
2019-03-27T11:26:39.442Z,10.84
2019-03-27T11:27:39.479Z,10.83
2019-03-27T11:28:39.493Z,10.77
2019-03-27T11:29:39.586Z,10.76
2019-03-27T11:30:39.529Z,10.77
2019-03-27T11:31:39.554Z,10.83
2019-03-27T11:32:39.579Z,10.83
2019-03-27T11:33:39.599Z,10.80
2019-03-27T11:34:39.633Z,10.80
2019-03-27T11:35:39.651Z,10.77
2019-03-27T11:36:39.674Z,10.84
2019-03-27T11:37:39.685Z,10.77
2019-03-27T11:38:39.716Z,10.94
2019-03-27T11:39:39.750Z,10.87
2019-03-27T11:40:39.761Z,10.69
2019-03-27T11:41:39.772Z,10.90
2019-03-27T11:42:39.799Z,10.87
2019-03-27T11:43:39.842Z,10.86
2019-03-27T11:44:39.846Z,10.86
2019-03-27T11:45:39.872Z,10.86
2019-03-27T11:46:39.888Z,10.97
2019-03-27T11:47:39.912Z,10.95
2019-03-27T11:48:39.964Z,11.01
2019-03-27T11:49:39.958Z,11.05
2019-03-27T11:50:45.328Z,10.92
2019-03-27T11:51:40.003Z,10.98
2019-03-27T11:52:40.027Z,10.90
2019-03-27T11:53:40.055Z,11.08
2019-03-27T11:54:40.081Z,11.00
2019-03-27T11:55:40.111Z,10.89
2019-03-27T11:56:40.121Z,10.87
2019-03-27T11:57:40.138Z,10.90
2019-03-27T11:58:40.156Z,10.82
2019-03-27T11:59:52.974Z,10.80
2019-03-27T12:00:53.894Z,10.87
2019-03-27T12:01:43.580Z,10.86
2019-03-27T12:02:40.253Z,10.82
2019-03-27T12:03:40.270Z,10.79
2019-03-27T12:04:40.295Z,10.86
2019-03-27T12:05:40.313Z,10.80
2019-03-27T12:06:40.348Z,10.83
2019-03-27T12:07:40.370Z,10.87
2019-03-27T12:08:40.389Z,10.97
2019-03-27T12:09:40.418Z,11.01
2019-03-27T12:10:40.428Z,11.10
2019-03-27T12:11:40.459Z,11.05
2019-03-27T12:12:40.486Z,11.07
2019-03-27T12:13:40.496Z,11.15
2019-03-27T12:14:40.525Z,11.25
2019-03-27T12:15:40.541Z,11.31
2019-03-27T12:16:40.573Z,11.31
2019-03-27T12:17:40.588Z,11.34
2019-03-27T12:18:40.629Z,11.23
2019-03-27T12:19:40.631Z,11.30
2019-03-27T12:20:40.677Z,11.25
2019-03-27T12:21:40.799Z,11.23
2019-03-27T12:22:40.704Z,11.23
2019-03-27T12:23:40.715Z,11.22
2019-03-27T12:24:40.743Z,11.13
2019-03-27T12:25:40.777Z,11.19
2019-03-27T12:26:40.791Z,11.19
2019-03-27T12:27:40.846Z,11.15
2019-03-27T12:28:40.844Z,11.08
2019-03-27T12:29:40.857Z,11.10
2019-03-27T12:30:40.879Z,11.13
2019-03-27T12:31:40.900Z,11.15
2019-03-27T12:32:40.928Z,11.20
2019-03-27T12:33:40.938Z,11.07
2019-03-27T12:34:40.971Z,11.13
2019-03-27T12:35:40.990Z,11.16
2019-03-27T12:36:41.019Z,11.19
2019-03-27T12:37:41.042Z,11.13
2019-03-27T12:38:41.062Z,11.22
2019-03-27T12:39:41.271Z,11.15
2019-03-27T12:40:41.104Z,11.20
2019-03-27T12:41:41.156Z,11.16
2019-03-27T12:42:41.160Z,11.16
2019-03-27T12:43:41.174Z,11.19
2019-03-27T12:44:41.202Z,11.22
2019-03-27T12:45:41.216Z,11.23
2019-03-27T12:46:41.240Z,11.31
2019-03-27T12:47:41.266Z,11.20
2019-03-27T12:48:41.284Z,11.20
2019-03-27T12:49:41.308Z,11.13
2019-03-27T12:50:44.157Z,11.18
2019-03-27T12:51:41.355Z,11.18
2019-03-27T12:52:41.371Z,11.18
2019-03-27T12:53:41.398Z,11.15
2019-03-27T12:54:41.419Z,11.15
2019-03-27T12:55:41.468Z,11.19
2019-03-27T12:56:41.473Z,11.08
2019-03-27T12:57:41.486Z,11.16
2019-03-27T12:58:41.511Z,11.12
2019-03-27T12:59:41.531Z,11.15
2019-03-27T13:00:41.557Z,11.33
2019-03-27T13:01:41.575Z,11.19
2019-03-27T13:02:41.598Z,11.12
2019-03-27T13:03:44.321Z,11.13
2019-03-27T13:04:41.642Z,11.05
2019-03-27T13:05:41.670Z,11.16
2019-03-27T13:06:41.694Z,11.07
2019-03-27T13:07:50.055Z,11.15
2019-03-27T13:08:41.735Z,11.07
2019-03-27T13:09:41.763Z,11.08
2019-03-27T13:10:41.782Z,11.08
2019-03-27T13:11:41.804Z,11.19
2019-03-27T13:12:41.824Z,11.16
2019-03-27T13:13:41.858Z,11.12
2019-03-27T13:14:41.872Z,11.05
2019-03-27T13:15:41.890Z,11.10
2019-03-27T13:16:41.914Z,11.12
2019-03-27T13:17:41.948Z,11.15
2019-03-27T13:18:41.963Z,11.07
2019-03-27T13:19:41.984Z,11.12
2019-03-27T13:20:42.012Z,11.10
2019-03-27T13:21:42.028Z,11.13
2019-03-27T13:22:42.056Z,11.05
2019-03-27T13:23:42.072Z,11.13
2019-03-27T13:24:42.098Z,11.15
2019-03-27T13:25:42.120Z,11.20
2019-03-27T13:26:42.141Z,11.12
2019-03-27T13:27:42.168Z,11.12
2019-03-27T13:28:48.756Z,11.12
2019-03-27T13:29:42.214Z,11.07
2019-03-27T13:30:42.230Z,11.05
2019-03-27T13:31:42.253Z,11.12
2019-03-27T13:32:42.277Z,11.07
2019-03-27T13:33:42.304Z,11.08
2019-03-27T13:34:42.320Z,11.08
2019-03-27T13:35:42.345Z,11.12
2019-03-27T13:36:42.374Z,11.12
2019-03-27T13:37:42.403Z,11.12
2019-03-27T13:38:42.410Z,11.13
2019-03-27T13:39:42.428Z,11.07
2019-03-27T13:40:42.457Z,10.95
2019-03-27T13:41:42.492Z,11.04
2019-03-27T13:42:42.500Z,10.98
2019-03-27T13:43:42.526Z,11.07
2019-03-27T13:44:42.551Z,11.16
2019-03-27T13:45:42.576Z,11.22
2019-03-27T13:46:42.608Z,11.25
2019-03-27T13:47:42.621Z,11.25
2019-03-27T13:48:42.636Z,11.22
2019-03-27T13:49:42.660Z,11.18
2019-03-27T13:50:42.682Z,11.22
2019-03-27T13:51:42.711Z,11.15
2019-03-27T13:52:42.730Z,11.23
2019-03-27T13:53:42.753Z,11.10
2019-03-27T13:54:42.776Z,11.16
2019-03-27T13:55:42.811Z,11.15
2019-03-27T13:56:42.822Z,11.22
2019-03-27T13:57:42.847Z,11.18
2019-03-27T13:58:42.864Z,11.19
2019-03-27T13:59:42.885Z,11.15
2019-03-27T14:00:42.906Z,11.13
2019-03-27T14:01:42.932Z,11.12
2019-03-27T14:02:42.966Z,11.18
2019-03-27T14:03:42.972Z,11.18
2019-03-27T14:04:42.999Z,11.08
2019-03-27T14:05:43.028Z,11.07
2019-03-27T14:06:44.748Z,11.15
2019-03-27T14:07:43.072Z,11.12
2019-03-27T14:08:43.086Z,11.08
2019-03-27T14:09:43.114Z,11.12
2019-03-27T14:10:43.138Z,11.12
2019-03-27T14:11:43.202Z,11.04
2019-03-27T14:12:43.289Z,11.15
2019-03-27T14:13:43.627Z,11.12
2019-03-27T14:14:50.299Z,11.10
2019-03-27T14:15:43.242Z,11.07
2019-03-27T14:16:43.378Z,11.07
2019-03-27T14:17:43.298Z,11.01
2019-03-27T14:18:43.501Z,10.94
2019-03-27T14:19:43.381Z,11.04
2019-03-27T14:20:43.578Z,10.94
2019-03-27T14:21:53.793Z,11.01
2019-03-27T14:22:43.414Z,10.98
2019-03-27T14:23:43.427Z,11.10
2019-03-27T14:24:43.451Z,11.08
2019-03-27T14:25:43.473Z,11.05
2019-03-27T14:26:45.281Z,11.00
2019-03-27T14:27:45.329Z,10.95
2019-03-27T14:28:43.628Z,11.02
2019-03-27T14:29:43.571Z,10.97
2019-03-27T14:30:43.578Z,10.97
2019-03-27T14:31:43.603Z,11.12
2019-03-27T14:32:43.629Z,11.04
2019-03-27T14:33:43.648Z,11.15
2019-03-27T14:34:43.677Z,11.18
2019-03-27T14:35:43.696Z,11.07
2019-03-27T14:36:43.719Z,11.05
2019-03-27T14:37:43.742Z,11.15
2019-03-27T14:38:43.776Z,11.05
2019-03-27T14:39:43.781Z,11.13
2019-03-27T14:40:43.828Z,11.02
2019-03-27T14:41:43.832Z,10.98
2019-03-27T14:42:43.872Z,10.95
2019-03-27T14:43:43.879Z,11.01
2019-03-27T14:44:43.900Z,10.87
2019-03-27T14:45:43.921Z,10.92
2019-03-27T14:46:43.949Z,10.92
2019-03-27T14:47:43.980Z,10.90
2019-03-27T14:48:43.990Z,10.89
2019-03-27T14:49:44.026Z,10.92
2019-03-27T14:50:44.033Z,10.92
2019-03-27T14:51:44.134Z,10.92
2019-03-27T14:52:44.077Z,10.94
2019-03-27T14:53:44.121Z,10.92
2019-03-27T14:54:44.138Z,10.89
2019-03-27T14:55:44.153Z,11.00
2019-03-27T14:56:44.176Z,10.90
2019-03-27T14:57:44.218Z,10.90
2019-03-27T14:58:44.218Z,11.00
2019-03-27T14:59:44.241Z,10.87
2019-03-27T15:00:44.276Z,10.97
2019-03-27T15:01:44.287Z,11.02
2019-03-27T15:02:44.321Z,11.01
2019-03-27T15:03:44.328Z,11.16
2019-03-27T15:04:44.352Z,11.08
2019-03-27T15:05:44.378Z,11.05
2019-03-27T15:06:44.400Z,11.12